KMTW/MTW METAR and TAF weather

Enter ICAO airport designator
Station Type Date Time Source
KMTW METAR 2019/06/26 04:56 UTC NOAA

KMTW 260456Z AUTO 25008KT 10SM CLR 21/14 A2988 RMK AO2 SLP114 T02110144 402670161


Station Type Date Time Source
KMTW Decoded METAR 2019/06/26 04:56 UTC NOAA

Manitowoc, Manitowoc County Airport, WI, United States (KMTW) 44-08N 087-41W
Jun 26, 2019 - 12:56 AM EDT / 2019.06.26 0456 UTC
Wind: from the WSW (250 degrees) at 9 MPH (8 KT):0
Visibility: 10 mile(s):0
Sky conditions: clear
Temperature: 70.0 F (21.1 C)
Dew Point: 57.9 F (14.4 C)
Relative Humidity: 65%
Pressure (altimeter): 29.88 in. Hg (1011 hPa)
ob: KMTW 260456Z AUTO 25008KT 10SM CLR 21/14 A2988 RMK AO2 SLP114 T02110144 402670161
cycle: 5

Station Type Date Time Source
KMTW TAF 2019/06/26 06:22 UTC NOAA

TAF KMTW 260520Z 2606/2706 26007KT P6SM FEW050
FM262300 21004KT P6SM SCT060
FM270400 21002KT P6SM SCT090

Example: see airport list